createdAt,value
2023-01-28T00:01:24.632Z,-0.70
2023-01-28T00:03:52.269Z,-0.70
2023-01-28T00:06:19.419Z,-0.70
2023-01-28T00:08:46.454Z,-0.70
2023-01-28T00:11:13.552Z,-0.80
2023-01-28T00:13:40.562Z,-0.80
2023-01-28T00:16:08.725Z,-0.70
2023-01-28T00:18:35.798Z,-0.80
2023-01-28T00:21:06.909Z,-0.80
2023-01-28T00:23:34.890Z,-0.80
2023-01-28T00:26:04.901Z,-0.80
2023-01-28T00:28:31.964Z,-0.80
2023-01-28T00:30:59.031Z,-0.80
2023-01-28T00:33:29.323Z,-0.80
2023-01-28T00:36:00.412Z,-0.80
2023-01-28T00:38:27.672Z,-0.90
2023-01-28T00:40:54.714Z,-0.90
2023-01-28T00:43:21.893Z,-0.90
2023-01-28T00:45:50.304Z,-0.90
2023-01-28T00:48:17.501Z,-0.90
2023-01-28T00:50:46.095Z,-0.90
2023-01-28T00:53:14.377Z,-0.90
2023-01-28T00:55:41.436Z,-0.90
2023-01-28T00:58:09.175Z,-1.00
2023-01-28T01:00:36.215Z,-1.00
2023-01-28T01:03:03.208Z,-1.00
2023-01-28T01:05:30.238Z,-1.00
2023-01-28T01:07:59.832Z,-1.00
2023-01-28T01:10:26.829Z,-1.00
2023-01-28T01:12:54.007Z,-1.00
2023-01-28T01:15:21.062Z,-1.00
2023-01-28T01:17:48.462Z,-1.00
2023-01-28T01:20:16.603Z,-1.00
2023-01-28T01:22:43.803Z,-1.00
2023-01-28T01:25:11.455Z,-1.00
2023-01-28T01:27:38.458Z,-1.00
2023-01-28T01:30:08.436Z,-1.10
2023-01-28T01:32:35.521Z,-1.00
2023-01-28T01:35:03.057Z,-1.00
2023-01-28T01:37:30.026Z,-1.00
2023-01-28T01:39:57.226Z,-1.00
2023-01-28T01:42:24.472Z,-1.00
2023-01-28T01:45:02.211Z,-1.00
2023-01-28T01:47:34.789Z,-1.00
2023-01-28T01:50:03.149Z,-1.00
2023-01-28T01:52:31.762Z,-1.00
2023-01-28T01:54:59.043Z,-1.00
2023-01-28T01:57:30.379Z,-1.00
2023-01-28T02:00:05.230Z,-1.00
2023-01-28T02:02:41.642Z,-1.00
2023-01-28T02:05:08.994Z,-1.00
2023-01-28T02:07:36.092Z,-1.00
2023-01-28T02:10:03.208Z,-1.00
2023-01-28T02:12:31.841Z,-1.10
2023-01-28T02:15:02.970Z,-1.00
2023-01-28T02:17:30.031Z,-1.10
2023-01-28T02:20:07.276Z,-1.10
2023-01-28T02:22:40.273Z,-1.00
2023-01-28T02:25:19.549Z,-1.00
2023-01-28T02:27:49.590Z,-1.00
2023-01-28T02:30:19.442Z,-1.00
2023-01-28T02:32:49.771Z,-1.00
2023-01-28T02:35:31.727Z,-1.10
2023-01-28T02:38:00.641Z,-1.10
2023-01-28T02:40:29.725Z,-1.10
2023-01-28T02:42:57.501Z,-1.10
2023-01-28T02:45:51.138Z,-1.10
2023-01-28T02:48:18.344Z,-1.10
2023-01-28T02:51:02.075Z,-1.10
2023-01-28T02:53:46.136Z,-1.10
2023-01-28T02:56:32.067Z,-1.10
2023-01-28T02:59:30.166Z,-1.10
2023-01-28T03:02:01.522Z,-1.10
2023-01-28T03:04:29.652Z,-1.10
2023-01-28T03:06:58.018Z,-1.10
2023-01-28T03:09:27.903Z,-1.10
2023-01-28T03:12:13.779Z,-1.10
2023-01-28T03:14:59.265Z,-1.10
2023-01-28T03:17:46.597Z,-1.10
2023-01-28T03:20:32.602Z,-1.10
2023-01-28T03:23:19.441Z,-1.10
2023-01-28T03:26:06.630Z,-1.10
2023-01-28T03:28:52.545Z,-1.10
2023-01-28T03:31:38.260Z,-1.10
2023-01-28T03:34:24.310Z,-1.10
2023-01-28T03:36:53.124Z,-1.10
2023-01-28T03:39:38.991Z,-1.10
2023-01-28T03:42:09.611Z,-1.10
2023-01-28T03:44:50.863Z,-1.10
2023-01-28T03:47:25.926Z,-1.10
2023-01-28T03:49:53.598Z,-1.10
2023-01-28T03:52:26.438Z,-1.10
2023-01-28T03:54:57.348Z,-1.10
2023-01-28T03:57:26.215Z,-1.10
2023-01-28T03:59:53.573Z,-1.10
2023-01-28T04:02:22.356Z,-1.10
2023-01-28T04:04:51.476Z,-1.10
2023-01-28T04:07:18.814Z,-1.10
2023-01-28T04:10:08.750Z,-1.20
2023-01-28T04:12:50.281Z,-1.20
2023-01-28T04:15:19.455Z,-1.10
2023-01-28T04:17:48.908Z,-1.20
2023-01-28T04:20:23.857Z,-1.10
2023-01-28T04:22:50.846Z,-1.10
2023-01-28T04:25:19.637Z,-1.10
2023-01-28T04:27:47.050Z,-1.10
2023-01-28T04:30:21.035Z,-1.10
2023-01-28T04:33:13.160Z,-1.10
2023-01-28T04:35:52.925Z,-1.10
2023-01-28T04:38:37.055Z,-1.10
2023-01-28T04:41:19.262Z,-1.10
2023-01-28T04:43:49.143Z,-1.10
2023-01-28T04:46:22.007Z,-1.10
2023-01-28T04:49:04.120Z,-1.20
2023-01-28T04:51:42.074Z,-1.20
2023-01-28T04:54:21.405Z,-1.20
2023-01-28T04:56:49.282Z,-1.20
2023-01-28T04:59:16.355Z,-1.20
2023-01-28T05:01:43.565Z,-1.10
2023-01-28T05:04:11.234Z,-1.20
2023-01-28T05:06:39.568Z,-1.20
2023-01-28T05:09:14.030Z,-1.20
2023-01-28T05:11:41.376Z,-1.20
2023-01-28T05:14:08.729Z,-1.20
2023-01-28T05:16:41.698Z,-1.10
2023-01-28T05:19:08.727Z,-1.20
2023-01-28T05:21:40.025Z,-1.20
2023-01-28T05:24:15.695Z,-1.10
2023-01-28T05:26:44.434Z,-1.20
2023-01-28T05:29:11.848Z,-1.20
2023-01-28T05:31:40.948Z,-1.20
2023-01-28T05:34:11.716Z,-1.20
2023-01-28T05:36:40.924Z,-1.20
2023-01-28T05:39:23.017Z,-1.10
2023-01-28T05:41:51.354Z,-1.10
2023-01-28T05:44:18.390Z,-1.10
2023-01-28T05:46:57.553Z,-1.10
2023-01-28T05:49:59.816Z,-1.20
2023-01-28T05:52:39.440Z,-1.20
2023-01-28T05:55:12.237Z,-1.20
2023-01-28T05:57:39.460Z,-1.20
2023-01-28T06:00:08.308Z,-1.20
2023-01-28T06:02:42.089Z,-1.20
2023-01-28T06:05:11.151Z,-1.20
2023-01-28T06:07:40.162Z,-1.20
2023-01-28T06:10:10.448Z,-1.20
2023-01-28T06:12:37.515Z,-1.20
2023-01-28T06:15:36.988Z,-1.20
2023-01-28T06:18:27.088Z,-1.20
2023-01-28T06:20:54.461Z,-1.20
2023-01-28T06:23:21.466Z,-1.20
2023-01-28T06:25:53.097Z,-1.20
2023-01-28T06:28:20.214Z,-1.10
2023-01-28T06:30:51.103Z,-1.10
2023-01-28T06:33:21.591Z,-1.20
2023-01-28T06:35:48.565Z,-1.10
2023-01-28T06:38:15.628Z,-1.10
2023-01-28T06:40:42.618Z,-1.10
2023-01-28T06:43:09.594Z,-1.10
2023-01-28T06:45:36.582Z,-1.10
2023-01-28T06:48:04.311Z,-1.10
2023-01-28T06:50:31.481Z,-1.10
2023-01-28T06:52:58.672Z,-1.10
2023-01-28T06:55:25.679Z,-1.10
2023-01-28T06:57:52.890Z,-1.10
2023-01-28T07:00:20.135Z,-1.10
2023-01-28T07:02:47.120Z,-1.10
2023-01-28T07:05:14.406Z,-1.10
2023-01-28T07:07:42.137Z,-1.10
2023-01-28T07:10:10.195Z,-1.20
2023-01-28T07:12:37.163Z,-1.20
2023-01-28T07:15:04.397Z,-1.10
2023-01-28T07:17:31.464Z,-1.10
2023-01-28T07:19:58.502Z,-1.10
2023-01-28T07:22:25.482Z,-1.10
2023-01-28T07:24:52.516Z,-1.10
2023-01-28T07:27:19.549Z,-1.10
2023-01-28T07:29:46.526Z,-1.10
2023-01-28T07:32:13.576Z,-1.10
2023-01-28T07:34:42.942Z,-1.10
2023-01-28T07:37:09.975Z,-1.10
2023-01-28T07:39:36.995Z,-1.10
2023-01-28T07:42:04.302Z,-1.10
2023-01-28T07:44:38.875Z,-1.10
2023-01-28T07:47:06.257Z,-1.10
2023-01-28T07:49:34.013Z,-1.10
2023-01-28T07:52:01.012Z,-1.10
2023-01-28T07:54:28.581Z,-1.00
2023-01-28T07:56:55.591Z,-1.10
2023-01-28T07:59:22.641Z,-1.00
2023-01-28T08:01:54.944Z,-1.00
2023-01-28T08:04:22.351Z,-1.00
2023-01-28T08:06:49.518Z,-1.00
2023-01-28T08:09:16.485Z,-1.00
2023-01-28T08:11:43.672Z,-1.00
2023-01-28T08:14:11.033Z,-1.00
2023-01-28T08:16:38.085Z,-0.90
2023-01-28T08:19:05.083Z,-0.90
2023-01-28T08:21:32.063Z,-0.90
2023-01-28T08:23:59.086Z,-0.90
2023-01-28T08:26:26.174Z,-0.90
2023-01-28T08:28:53.155Z,-0.90
2023-01-28T08:31:20.231Z,-0.80
2023-01-28T08:33:47.254Z,-0.80
2023-01-28T08:36:14.282Z,-0.80
2023-01-28T08:38:41.500Z,-0.70
2023-01-28T08:41:10.872Z,-0.70
2023-01-28T08:43:37.924Z,-0.70
2023-01-28T08:46:05.772Z,-0.70
2023-01-28T08:48:32.815Z,-0.70
2023-01-28T08:51:00.039Z,-0.70
2023-01-28T08:53:27.095Z,-0.70
2023-01-28T08:55:54.334Z,-0.70
2023-01-28T08:58:21.634Z,-0.60
2023-01-28T09:00:48.807Z,-0.60
2023-01-28T09:03:16.015Z,-0.60
2023-01-28T09:05:43.041Z,-0.60
2023-01-28T09:08:11.162Z,-0.50
2023-01-28T09:10:38.336Z,-0.50
2023-01-28T09:13:06.129Z,-0.40
2023-01-28T09:15:33.350Z,-0.40
2023-01-28T09:18:00.373Z,-0.40
2023-01-28T09:20:27.481Z,-0.30
2023-01-28T09:22:54.521Z,-0.30
2023-01-28T09:25:21.803Z,-0.40
2023-01-28T09:27:48.887Z,-0.40
2023-01-28T09:30:16.429Z,-0.40
2023-01-28T09:32:43.604Z,-0.40
2023-01-28T09:35:10.661Z,-0.30
2023-01-28T09:37:37.635Z,-0.30
2023-01-28T09:40:07.468Z,-0.30
2023-01-28T09:42:49.669Z,-0.20
2023-01-28T09:45:17.690Z,-0.20
2023-01-28T09:47:51.446Z,-0.20
2023-01-28T09:50:20.656Z,-0.20
2023-01-28T09:52:47.646Z,-0.20
2023-01-28T09:55:31.755Z,-0.10
2023-01-28T09:57:58.929Z,-0.10
2023-01-28T10:00:37.883Z,-0.10
2023-01-28T10:03:22.787Z,-0.10
2023-01-28T10:05:56.138Z,0.00
2023-01-28T10:08:26.640Z,0.00
2023-01-28T10:10:58.757Z,0.00
2023-01-28T10:13:28.467Z,0.10
2023-01-28T10:16:07.582Z,0.10
2023-01-28T10:18:35.747Z,0.20
2023-01-28T10:21:05.931Z,0.20
2023-01-28T10:23:51.840Z,0.20
2023-01-28T10:26:26.501Z,0.30
2023-01-28T10:28:54.893Z,0.40
2023-01-28T10:31:24.953Z,0.40
2023-01-28T10:33:51.969Z,0.40
2023-01-28T10:36:18.945Z,0.40
2023-01-28T10:38:46.904Z,0.40
2023-01-28T10:41:15.574Z,0.40
2023-01-28T10:43:42.638Z,0.40
2023-01-28T10:46:13.200Z,0.50
2023-01-28T10:49:02.922Z,0.50
2023-01-28T10:51:37.008Z,0.50
2023-01-28T10:54:04.473Z,0.60
2023-01-28T10:56:31.922Z,0.60
2023-01-28T10:59:01.944Z,0.70
2023-01-28T11:01:39.430Z,0.70
2023-01-28T11:04:06.767Z,0.80
2023-01-28T11:06:33.738Z,0.70
2023-01-28T11:09:01.649Z,0.70
2023-01-28T11:11:32.677Z,0.70
2023-01-28T11:14:04.628Z,0.70
2023-01-28T11:16:34.186Z,0.80
2023-01-28T11:19:06.633Z,0.80
2023-01-28T11:21:33.672Z,0.90
2023-01-28T11:24:04.854Z,0.90
2023-01-28T11:26:36.035Z,0.90
2023-01-28T11:29:03.187Z,0.80
2023-01-28T11:31:30.225Z,0.80
2023-01-28T11:34:00.507Z,0.70
2023-01-28T11:36:28.284Z,0.70
2023-01-28T11:39:02.729Z,0.70
2023-01-28T11:41:30.549Z,0.70
2023-01-28T11:44:00.694Z,0.70
2023-01-28T11:46:30.879Z,0.70
2023-01-28T11:49:07.301Z,0.80
2023-01-28T11:51:45.446Z,0.80
2023-01-28T11:54:15.806Z,0.80
2023-01-28T11:56:46.012Z,0.80
2023-01-28T11:59:31.981Z,0.80
2023-01-28T12:02:06.788Z,0.80
2023-01-28T12:04:34.280Z,0.90
2023-01-28T12:07:05.550Z,0.80
2023-01-28T12:09:44.816Z,0.90
2023-01-28T12:12:16.058Z,0.90
2023-01-28T12:14:58.026Z,0.90
2023-01-28T12:17:34.375Z,0.80
2023-01-28T12:20:01.346Z,0.70
2023-01-28T12:22:40.593Z,0.70
2023-01-28T12:25:33.875Z,0.70
2023-01-28T12:28:19.503Z,0.70
2023-01-28T12:30:58.192Z,0.70
2023-01-28T12:33:32.787Z,0.60
2023-01-28T12:36:29.230Z,0.60
2023-01-28T12:39:02.247Z,0.50
2023-01-28T12:41:33.325Z,0.50
2023-01-28T12:44:03.662Z,0.50
2023-01-28T12:46:39.840Z,0.50
2023-01-28T12:49:10.255Z,0.50
2023-01-28T12:51:37.300Z,0.40
2023-01-28T12:54:06.375Z,0.40
2023-01-28T12:56:34.166Z,0.40
2023-01-28T12:59:05.744Z,0.40
2023-01-28T13:01:38.008Z,0.40
2023-01-28T13:04:06.967Z,0.40
2023-01-28T13:06:37.152Z,0.40
2023-01-28T13:09:10.699Z,0.40
2023-01-28T13:11:40.147Z,0.40
2023-01-28T13:14:07.135Z,0.50
2023-01-28T13:16:37.865Z,0.50
2023-01-28T13:19:06.030Z,0.50
2023-01-28T13:21:40.177Z,0.50
2023-01-28T13:24:14.701Z,0.50
2023-01-28T13:26:41.729Z,0.50
2023-01-28T13:29:14.832Z,0.50
2023-01-28T13:31:42.685Z,0.50
2023-01-28T13:34:29.617Z,0.50
2023-01-28T13:36:56.862Z,0.60
2023-01-28T13:39:24.292Z,0.60
2023-01-28T13:41:55.228Z,0.60
2023-01-28T13:44:25.218Z,0.60
2023-01-28T13:46:52.741Z,0.60
2023-01-28T13:49:21.498Z,0.60
2023-01-28T13:52:01.996Z,0.70
2023-01-28T13:54:29.056Z,0.70
2023-01-28T13:56:59.270Z,0.70
2023-01-28T13:59:44.675Z,0.70
2023-01-28T14:02:28.638Z,0.70
2023-01-28T14:05:15.489Z,0.70
2023-01-28T14:07:45.584Z,0.70
2023-01-28T14:10:15.486Z,0.70
2023-01-28T14:12:55.039Z,0.70
2023-01-28T14:15:22.004Z,0.70
2023-01-28T14:17:49.831Z,0.70
2023-01-28T14:20:20.899Z,0.70
2023-01-28T14:22:48.433Z,0.70
2023-01-28T14:25:17.218Z,0.70
2023-01-28T14:27:45.884Z,0.60
2023-01-28T14:30:18.672Z,0.60
2023-01-28T14:32:49.664Z,0.60
2023-01-28T14:35:18.953Z,0.50
2023-01-28T14:37:45.939Z,0.50
2023-01-28T14:40:13.960Z,0.50
2023-01-28T14:42:43.664Z,0.50
2023-01-28T14:45:27.029Z,0.50
2023-01-28T14:47:57.029Z,0.50
2023-01-28T14:50:27.017Z,0.50
2023-01-28T14:53:09.393Z,0.50
2023-01-28T14:55:36.332Z,0.50
2023-01-28T14:58:06.972Z,0.60
2023-01-28T15:00:34.231Z,0.60
2023-01-28T15:03:23.205Z,0.50
2023-01-28T15:06:04.669Z,0.60
2023-01-28T15:08:32.290Z,0.50
2023-01-28T15:10:59.508Z,0.50
2023-01-28T15:13:27.101Z,0.50
2023-01-28T15:15:58.170Z,0.50
2023-01-28T15:18:28.633Z,0.60
2023-01-28T15:20:55.609Z,0.60
2023-01-28T15:23:27.181Z,0.60
2023-01-28T15:25:55.460Z,0.50
2023-01-28T15:28:26.795Z,0.50
2023-01-28T15:30:53.835Z,0.50
2023-01-28T15:33:21.814Z,0.50
2023-01-28T15:35:49.629Z,0.50
2023-01-28T15:38:19.659Z,0.50
2023-01-28T15:40:48.141Z,0.50
2023-01-28T15:43:22.256Z,0.50
2023-01-28T15:45:49.718Z,0.50
2023-01-28T15:48:16.734Z,0.50
2023-01-28T15:50:46.872Z,0.50
2023-01-28T15:53:17.017Z,0.40
2023-01-28T15:55:44.558Z,0.40
2023-01-28T15:58:11.944Z,0.40
2023-01-28T16:00:39.331Z,0.40
2023-01-28T16:03:09.777Z,0.40
2023-01-28T16:05:40.258Z,0.40
2023-01-28T16:08:07.933Z,0.30
2023-01-28T16:10:35.047Z,0.30
2023-01-28T16:13:11.390Z,0.30
2023-01-28T16:15:39.409Z,0.30
2023-01-28T16:18:06.452Z,0.30
2023-01-28T16:20:33.555Z,0.30
2023-01-28T16:23:01.125Z,0.30
2023-01-28T16:25:28.264Z,0.30
2023-01-28T16:27:55.633Z,0.30
2023-01-28T16:30:22.674Z,0.30
2023-01-28T16:32:49.785Z,0.30
2023-01-28T16:35:20.263Z,0.30
2023-01-28T16:37:47.849Z,0.30
2023-01-28T16:40:19.391Z,0.30
2023-01-28T16:42:48.495Z,0.30
2023-01-28T16:45:19.429Z,0.30
2023-01-28T16:47:46.485Z,0.30
2023-01-28T16:50:13.779Z,0.30
2023-01-28T16:52:41.805Z,0.30
2023-01-28T16:55:18.956Z,0.30
2023-01-28T16:57:46.586Z,0.30
2023-01-28T17:00:21.543Z,0.30
2023-01-28T17:02:52.128Z,0.30
2023-01-28T17:05:19.858Z,0.30
2023-01-28T17:07:48.757Z,0.30
2023-01-28T17:10:16.727Z,0.30
2023-01-28T17:12:44.135Z,0.30
2023-01-28T17:15:11.374Z,0.30
2023-01-28T17:17:38.451Z,0.30
2023-01-28T17:20:06.152Z,0.30
2023-01-28T17:22:33.165Z,0.30
2023-01-28T17:25:00.177Z,0.30
2023-01-28T17:27:27.283Z,0.30
2023-01-28T17:29:54.271Z,0.30
2023-01-28T17:32:21.283Z,0.30
2023-01-28T17:34:48.340Z,0.30
2023-01-28T17:37:15.318Z,0.30
2023-01-28T17:39:42.318Z,0.30
2023-01-28T17:42:09.362Z,0.30
2023-01-28T17:44:36.328Z,0.30
2023-01-28T17:47:03.478Z,0.30
2023-01-28T17:49:30.440Z,0.30
2023-01-28T17:51:57.450Z,0.30
2023-01-28T17:54:25.578Z,0.30
2023-01-28T17:56:52.569Z,0.30
2023-01-28T17:59:20.907Z,0.30
2023-01-28T18:01:49.831Z,0.30
2023-01-28T18:04:16.838Z,0.30
2023-01-28T18:06:44.886Z,0.30
2023-01-28T18:09:13.042Z,0.30
2023-01-28T18:11:40.091Z,0.30
2023-01-28T18:14:07.491Z,0.30
2023-01-28T18:16:34.454Z,0.30
2023-01-28T18:19:01.445Z,0.30
2023-01-28T18:21:51.374Z,0.30
2023-01-28T18:24:19.592Z,0.30
2023-01-28T18:26:46.663Z,0.30
2023-01-28T18:29:16.677Z,0.30
2023-01-28T18:31:43.960Z,0.30
2023-01-28T18:34:10.994Z,0.30
2023-01-28T18:36:37.984Z,0.30
2023-01-28T18:39:04.979Z,0.30
2023-01-28T18:41:31.949Z,0.30
2023-01-28T18:43:58.910Z,0.20
2023-01-28T18:46:26.049Z,0.20
2023-01-28T18:48:53.013Z,0.20
2023-01-28T18:51:29.994Z,0.20
2023-01-28T18:53:58.309Z,0.20
2023-01-28T18:56:25.562Z,0.20
2023-01-28T18:58:59.127Z,0.20
2023-01-28T19:01:26.241Z,0.20
2023-01-28T19:03:53.897Z,0.20
2023-01-28T19:06:20.989Z,0.20
2023-01-28T19:08:51.819Z,0.20
2023-01-28T19:11:18.820Z,0.20
2023-01-28T19:13:45.799Z,0.20
2023-01-28T19:16:12.881Z,0.20
2023-01-28T19:18:40.625Z,0.20
2023-01-28T19:21:07.726Z,0.20
2023-01-28T19:23:48.902Z,0.20
2023-01-28T19:26:20.899Z,0.20
2023-01-28T19:28:49.199Z,0.20
2023-01-28T19:31:18.730Z,0.20
2023-01-28T19:33:46.007Z,0.20
2023-01-28T19:36:13.707Z,0.20
2023-01-28T19:38:40.831Z,0.20
2023-01-28T19:41:07.959Z,0.20
2023-01-28T19:43:35.145Z,0.20
2023-01-28T19:46:02.949Z,0.20
2023-01-28T19:48:29.971Z,0.20
2023-01-28T19:50:56.992Z,0.20
2023-01-28T19:53:24.002Z,0.20
2023-01-28T19:55:52.281Z,0.20
2023-01-28T19:58:19.395Z,0.30
2023-01-28T20:00:46.358Z,0.30
2023-01-28T20:03:13.369Z,0.30
2023-01-28T20:05:40.334Z,0.30
2023-01-28T20:08:07.306Z,0.30
2023-01-28T20:10:34.346Z,0.30
2023-01-28T20:13:01.309Z,0.30
2023-01-28T20:15:28.310Z,0.30
2023-01-28T20:17:55.484Z,0.30
2023-01-28T20:20:22.452Z,0.30
2023-01-28T20:22:49.417Z,0.30
2023-01-28T20:25:17.123Z,0.30
2023-01-28T20:27:44.378Z,0.30
2023-01-28T20:30:11.677Z,0.30
2023-01-28T20:32:38.753Z,0.30
2023-01-28T20:35:05.878Z,0.30
2023-01-28T20:37:32.890Z,0.30
2023-01-28T20:39:59.895Z,0.30
2023-01-28T20:42:26.930Z,0.30
2023-01-28T20:44:53.921Z,0.30
2023-01-28T20:47:20.933Z,0.30
2023-01-28T20:49:47.889Z,0.30
2023-01-28T20:52:14.879Z,0.30
2023-01-28T20:54:41.876Z,0.30
2023-01-28T20:57:08.873Z,0.30
2023-01-28T20:59:36.810Z,0.30
2023-01-28T21:02:03.847Z,0.30
2023-01-28T21:04:30.856Z,0.30
2023-01-28T21:06:57.821Z,0.30
2023-01-28T21:09:25.890Z,0.30
2023-01-28T21:11:52.875Z,0.30
2023-01-28T21:14:19.881Z,0.30
2023-01-28T21:16:47.205Z,0.30
2023-01-28T21:19:16.731Z,0.30
2023-01-28T21:21:45.100Z,0.30
2023-01-28T21:24:12.080Z,0.30
2023-01-28T21:26:39.150Z,0.30
2023-01-28T21:29:06.108Z,0.30
2023-01-28T21:31:33.125Z,0.30
2023-01-28T21:34:03.088Z,0.30
2023-01-28T21:36:33.677Z,0.30
2023-01-28T21:39:00.765Z,0.30
2023-01-28T21:41:27.796Z,0.30
2023-01-28T21:43:54.943Z,0.30
2023-01-28T21:46:22.326Z,0.30
2023-01-28T21:48:49.481Z,0.30
2023-01-28T21:51:35.275Z,0.30
2023-01-28T21:54:02.577Z,0.30
2023-01-28T21:56:29.668Z,0.30
2023-01-28T21:59:15.315Z,0.30
2023-01-28T22:01:45.520Z,0.30
2023-01-28T22:04:12.678Z,0.30
2023-01-28T22:06:42.000Z,0.30
2023-01-28T22:09:11.806Z,0.30
2023-01-28T22:11:42.219Z,0.30
2023-01-28T22:14:09.299Z,0.30
2023-01-28T22:16:36.403Z,0.30
2023-01-28T22:19:03.515Z,0.30
2023-01-28T22:21:32.382Z,0.30
2023-01-28T22:23:59.371Z,0.30
2023-01-28T22:26:26.375Z,0.30
2023-01-28T22:28:53.353Z,0.30
2023-01-28T22:31:20.535Z,0.30
2023-01-28T22:33:47.640Z,0.30
2023-01-28T22:36:15.040Z,0.30
2023-01-28T22:38:42.490Z,0.30
2023-01-28T22:41:10.319Z,0.30
2023-01-28T22:43:37.282Z,0.30
2023-01-28T22:46:04.388Z,0.20
2023-01-28T22:48:31.399Z,0.20
2023-01-28T22:51:18.187Z,0.20
2023-01-28T22:53:45.317Z,0.20
2023-01-28T22:56:12.431Z,0.20
2023-01-28T22:58:39.453Z,0.20
2023-01-28T23:01:06.709Z,0.20
2023-01-28T23:03:33.825Z,0.20
2023-01-28T23:06:01.506Z,0.20
2023-01-28T23:08:28.549Z,0.20
2023-01-28T23:10:57.297Z,0.20
2023-01-28T23:13:24.507Z,0.20
2023-01-28T23:16:10.298Z,0.20
2023-01-28T23:18:56.207Z,0.30
2023-01-28T23:21:42.615Z,0.30
2023-01-28T23:24:20.611Z,0.20
2023-01-28T23:26:57.509Z,0.20
2023-01-28T23:29:25.000Z,0.20
2023-01-28T23:31:52.849Z,0.20
2023-01-28T23:34:19.886Z,0.20
2023-01-28T23:36:47.083Z,0.20
2023-01-28T23:39:14.132Z,0.20
2023-01-28T23:41:41.107Z,0.20
2023-01-28T23:44:08.066Z,0.20
2023-01-28T23:46:39.824Z,0.20
2023-01-28T23:49:08.175Z,0.20
2023-01-28T23:51:35.180Z,0.20
2023-01-28T23:54:02.187Z,0.20
2023-01-28T23:56:29.387Z,0.20
2023-01-28T23:58:56.580Z,0.20
